Baudour Heliport

EBBA · Hainaut, Wallonia, 比利时

罗盘
风向 的 风向 030° 直升机
风: 3 kt, 1 beaufort
0 ft 5.000 10.000 15.000 20.000
Cloud Cloud
FEW 8.500
Cloud Cloud Cloud Cloud Cloud Cloud
BKN 10.000
Cloud Cloud Cloud Cloud Cloud Cloud
BKN 11.000
METAR EBCV 252025Z AUTO 03003KT 9999 FEW085/// BKN100/// BKN110/// 23/15 Q1012 BLU

METAR Baudour Heliport - EBBA

Baudour Heliport是,比利时中的直升机场。 该机场位于纬度50,46963和经度3,83872。 本场的ICAO机场代码为EBBA。 机场在Bruxelles FIR中。

该航空气象观测是针对Chièvres Air Base在2024年6月25日 22:25, 当地时间进行的。

机场观察

风向为030°,速度为3 kt。

可见度为10 km 或者更多。

有几云在8.500 ft的高度, 碎云在10.000 ft的高度 和 碎云在11.000 ft的高度。 破损或更高的上限为10.000 ft。

温度和风寒是23 °C。 露点为15 °C,相对湿度为61%。 海平面上的气压为1012 hPa (QNH)。

白天

今天,太阳从05:34升起,在22:00降落。 这适用于Baudour Heliport,世界夏令时可能有所不同。 当地时间与世界标准时间之间的时差为+2 小时。 夏令时目前正在进行中。

公司介绍

我们没有关于这个机场的公司信息。

体会

到Vliegles.nl去找飞行课程,跳伞和其他飞行体验。 浏览页面,了解Baudour Heliport附近所有可用的活动。 你也可以使用搜索功能来寻找你所在地附近的特定飞行课程、跳伞或其他飞行体验。

乌云

8.500 ft FEW 几云
10.000 ft BKN 碎云
11.000 ft BKN 碎云

温度 & 天气

温度 23 °C
露点 15 °C
相对湿度 61%
Kp-index 2 (0-9)

白天

日出
05:33 (6:44)
中午
13:47
日落
22:01

小工具

你想在你的网站上有一个关于Baudour Heliport的当前航空天气(METAR)的小部件吗?

显示HTML代码
报告变更